Time;durP1;ratioP1;P1;durP2;ratioP2;P2;SDS_P1;SDS_P2;PMS_P1;PMS_P2;Temp;Humidity;BMP_temperature;BMP_pressure;BME280_temperature;BME280_humidity;BME280_pressure;Samples;Min_cycle;Max_cycle;Signal;HPM_P1;HPM_P2
2023/12/09 15:23:31;;;;;;;2.35;2.03;;;;;;;0.60;100.00;92282.63;5099412;27;20392;-77
2023/12/09 15:25:58;;;;;;;3.67;2.40;;;;;;;0.65;100.00;92276.00;5085622;28;20032;-77
2023/12/09 15:28:27;;;;;;;5.10;3.47;;;;;;;0.56;100.00;92285.91;5082319;28;20416;-77
2023/12/09 15:30:55;;;;;;;4.38;3.17;;;;;;;0.58;100.00;92287.22;5051325;28;20064;-77
2023/12/09 15:33:21;;;;;;;7.13;5.03;;;;;;;0.55;100.00;92271.47;5041507;28;20103;-77
2023/12/09 15:35:47;;;;;;;5.70;3.50;;;;;;;0.57;100.00;92285.69;5057461;28;20029;-77
2023/12/09 15:38:13;;;;;;;5.43;3.30;;;;;;;0.62;100.00;92272.09;5059213;28;20033;-78
2023/12/09 15:40:39;;;;;;;5.22;3.85;;;;;;;0.62;100.00;92266.97;5063656;28;20124;-78
2023/12/09 15:43:05;;;;;;;5.75;4.18;;;;;;;0.69;100.00;92269.41;5064512;28;20472;-77
2023/12/09 15:45:30;;;;;;;5.95;3.97;;;;;;;0.72;100.00;92272.31;5047978;28;20048;-78
2023/12/09 15:47:56;;;;;;;5.80;4.10;;;;;;;0.77;100.00;92284.50;5067427;28;20051;-78
2023/12/09 15:50:22;;;;;;;5.60;3.72;;;;;;;0.76;100.00;92282.91;5062259;28;20353;-78
2023/12/09 15:52:48;;;;;;;6.05;4.00;;;;;;;0.78;100.00;92276.50;5039161;28;20119;-78
2023/12/09 15:55:14;;;;;;;5.55;3.70;;;;;;;0.82;100.00;92274.25;5065718;28;20033;-78
2023/12/09 15:57:39;;;;;;;4.70;3.42;;;;;;;0.78;100.00;92275.75;5042050;28;20095;-78
2023/12/09 16:00:05;;;;;;;4.63;3.42;;;;;;;0.81;100.00;92270.91;5062710;28;20295;-79
2023/12/09 16:02:32;;;;;;;6.03;4.28;;;;;;;0.85;100.00;92275.59;5063313;28;20040;-78
2023/12/09 16:04:57;;;;;;;6.22;4.40;;;;;;;0.86;100.00;92257.34;5052107;28;20032;-78
2023/12/09 16:07:24;;;;;;;5.72;4.05;;;;;;;0.86;100.00;92236.72;5041447;28;20082;-78
2023/12/09 16:09:50;;;;;;;4.50;3.42;;;;;;;0.88;100.00;92236.47;5043793;28;20072;-78
2023/12/09 16:12:17;;;;;;;4.80;3.40;;;;;;;0.94;100.00;92222.66;5059534;28;20060;-78
2023/12/09 16:14:42;;;;;;;16.40;4.72;;;;;;;0.86;100.00;92210.94;5059664;28;20024;-78
2023/12/09 16:17:08;;;;;;;5.45;3.90;;;;;;;0.76;100.00;92229.56;5041992;28;20037;-78
2023/12/09 16:19:34;;;;;;;5.82;4.20;;;;;;;0.77;100.00;92243.25;5058693;28;20075;-78
2023/12/09 16:22:01;;;;;;;5.70;4.30;;;;;;;0.75;100.00;92238.34;5049205;28;20092;-78
2023/12/09 16:24:27;;;;;;;6.45;4.22;;;;;;;0.76;100.00;92246.84;5042333;28;20124;-78
2023/12/09 16:26:55;;;;;;;5.72;4.28;;;;;;;0.76;100.00;92263.06;5043690;28;20116;-78
2023/12/09 16:29:22;;;;;;;5.88;3.80;;;;;;;0.77;100.00;92274.19;5044690;28;20065;-79
2023/12/09 16:31:48;;;;;;;5.05;3.65;;;;;;;0.79;100.00;92282.47;5046673;28;20039;-79
2023/12/09 16:34:14;;;;;;;5.22;3.25;;;;;;;0.81;100.00;92273.50;5032253;28;20041;-79
2023/12/09 16:36:40;;;;;;;5.80;3.83;;;;;;;0.83;100.00;92252.63;5026662;28;20041;-78
2023/12/09 16:39:06;;;;;;;5.63;3.65;;;;;;;0.83;100.00;92242.31;5029146;28;20029;-79
2023/12/09 16:41:32;;;;;;;61.80;5.70;;;;;;;0.88;100.00;92219.22;5014081;28;20030;-78
2023/12/09 16:43:58;;;;;;;173.35;11.00;;;;;;;0.73;100.00;92203.50;5029216;28;20446;-78
2023/12/09 16:46:24;;;;;;;54.30;7.70;;;;;;;0.71;100.00;92213.25;5029217;28;20111;-78
2023/12/09 16:48:50;;;;;;;5.10;3.88;;;;;;;0.67;100.00;92227.63;5030657;28;20464;-78
2023/12/09 16:51:16;;;;;;;97.32;8.68;;;;;;;0.70;100.00;92216.84;5026796;28;20121;-77
2023/12/09 16:53:42;;;;;;;47.97;6.53;;;;;;;0.59;100.00;92221.84;5009177;28;20092;-78
2023/12/09 16:56:09;;;;;;;6.05;4.50;;;;;;;0.62;100.00;92238.63;5022667;28;20037;-78
2023/12/09 16:58:34;;;;;;;6.13;4.30;;;;;;;0.62;100.00;92231.66;5025933;28;20182;-77
2023/12/09 17:01:00;;;;;;;5.57;4.10;;;;;;;0.66;100.00;92242.31;5007694;28;20116;-78
2023/12/09 17:03:26;;;;;;;5.80;4.28;;;;;;;0.68;100.00;92249.81;5027255;28;20029;-77
2023/12/09 17:05:52;;;;;;;4.88;3.50;;;;;;;0.70;100.00;92247.75;5023283;28;20033;-78
2023/12/09 17:08:17;;;;;;;5.38;3.97;;;;;;;0.70;100.00;92243.41;5024965;28;20040;-76
2023/12/09 17:10:43;;;;;;;5.65;4.00;;;;;;;0.73;100.00;92235.22;5022041;28;20037;-77
2023/12/09 17:13:09;;;;;;;5.75;4.32;;;;;;;0.72;100.00;92204.50;5027477;28;20048;-78
2023/12/09 17:15:35;;;;;;;5.80;4.22;;;;;;;0.77;100.00;92209.78;5025492;28;20033;-78
2023/12/09 17:18:02;;;;;;;75.85;7.70;;;;;;;0.77;100.00;92226.00;5029580;28;20116;-78
2023/12/09 17:20:28;;;;;;;5.10;3.85;;;;;;;0.72;100.00;92261.19;5031425;28;20056;-77
2023/12/09 17:22:54;;;;;;;8.02;4.25;;;;;;;0.63;100.00;92232.44;5039070;28;20041;-78
2023/12/09 17:25:20;;;;;;;37.20;6.65;;;;;;;0.65;100.00;92230.41;5049522;28;20036;-78
2023/12/09 17:27:46;;;;;;;5.85;4.60;;;;;;;0.58;100.00;92248.59;5044289;28;20099;-78
2023/12/09 17:30:16;;;;;;;5.93;4.40;;;;;;;0.60;100.00;92267.19;5043815;28;20404;-79
2023/12/09 17:32:42;;;;;;;6.65;3.83;;;;;;;0.62;100.00;92257.44;5046890;28;20033;-78
2023/12/09 17:35:10;;;;;;;5.88;4.55;;;;;;;0.61;100.00;92232.69;5057532;28;20040;-78
2023/12/09 17:37:36;;;;;;;5.82;4.50;;;;;;;0.65;100.00;92237.38;5059984;28;20071;-78
2023/12/09 17:40:04;;;;;;;5.80;3.85;;;;;;;0.66;100.00;92220.91;5053920;28;20144;-77
2023/12/09 17:42:30;;;;;;;4.85;3.38;;;;;;;0.67;100.00;92196.69;5033740;28;20119;-78
2023/12/09 17:44:56;;;;;;;5.35;3.85;;;;;;;0.70;100.00;92180.78;5045954;28;20040;-78
2023/12/09 17:47:22;;;;;;;6.72;4.15;;;;;;;0.74;100.00;92174.91;5049300;28;20041;-79
2023/12/09 17:49:48;;;;;;;10.07;6.47;;;;;;;0.77;100.00;92166.75;5028434;28;20503;-77
2023/12/09 17:52:14;;;;;;;4.78;3.58;;;;;;;0.85;100.00;92168.13;5047436;28;20076;-77
2023/12/09 17:54:41;;;;;;;4.82;3.45;;;;;;;0.77;100.00;92146.13;5045822;28;20151;-77
2023/12/09 17:57:07;;;;;;;28.17;6.40;;;;;;;0.71;100.00;92151.44;5046434;28;20032;-78
2023/12/09 17:59:33;;;;;;;15.52;3.90;;;;;;;0.64;100.00;92148.22;5047734;28;20041;-78
2023/12/09 18:02:00;;;;;;;91.40;8.35;;;;;;;0.80;100.00;92168.06;5045925;28;20039;-77
2023/12/09 18:04:26;;;;;;;15.68;4.07;;;;;;;0.61;100.00;92196.63;5047877;28;20043;-78
2023/12/09 18:06:52;;;;;;;12.60;6.00;;;;;;;0.54;100.00;92219.19;5048237;28;20103;-78
2023/12/09 18:09:18;;;;;;;5.68;3.92;;;;;;;0.50;100.00;92207.75;5044577;28;20519;-78
2023/12/09 18:11:43;;;;;;;7.35;3.65;;;;;;;0.48;100.00;92206.44;5045624;28;20398;-78
2023/12/09 18:14:09;;;;;;;5.00;3.80;;;;;;;0.50;100.00;92215.50;5061563;28;20044;-77
2023/12/09 18:16:34;;;;;;;5.68;4.18;;;;;;;0.50;100.00;92246.41;5048631;28;20240;-80
2023/12/09 18:19:01;;;;;;;6.68;4.43;;;;;;;0.51;100.00;92258.25;5050822;28;20049;-82
2023/12/09 18:21:26;;;;;;;6.22;4.30;;;;;;;0.50;100.00;92268.81;5043734;28;20041;-78
2023/12/09 18:23:53;;;;;;;5.22;3.75;;;;;;;0.49;100.00;92273.16;5025347;28;20036;-77
2023/12/09 18:26:19;;;;;;;5.38;3.78;;;;;;;0.46;100.00;92250.44;5026246;28;20030;-77
2023/12/09 18:28:45;;;;;;;7.93;5.53;;;;;;;0.49;100.00;92216.50;4995431;28;20052;-78
2023/12/09 18:31:11;;;;;;;6.90;5.60;;;;;;;0.48;100.00;92181.47;5010364;28;20110;-77
2023/12/09 18:33:36;;;;;;;6.05;4.63;;;;;;;0.47;100.00;92159.28;5026618;28;20029;-78
2023/12/09 18:36:03;;;;;;;5.20;3.90;;;;;;;0.61;100.00;92168.28;5009350;28;20037;-78
2023/12/09 18:38:29;;;;;;;8.02;6.22;;;;;;;0.59;100.00;92190.91;5027369;28;20496;-78
2023/12/09 18:40:54;;;;;;;8.48;6.15;;;;;;;0.55;100.00;92184.66;5025356;28;20037;-78
2023/12/09 18:43:20;;;;;;;6.47;4.78;;;;;;;0.56;100.00;92181.09;5024893;28;20536;-78
2023/12/09 18:45:46;;;;;;;7.20;5.53;;;;;;;0.52;100.00;92172.25;5028055;28;20378;-78
2023/12/09 18:48:12;;;;;;;7.07;4.95;;;;;;;0.56;100.00;92186.25;5023971;28;20056;-77
2023/12/09 18:50:38;;;;;;;5.22;4.32;;;;;;;0.51;100.00;92169.91;5009368;28;20080;-78
2023/12/09 18:53:03;;;;;;;5.47;4.00;;;;;;;0.53;100.00;92171.22;5022989;28;20562;-82
2023/12/09 18:55:29;;;;;;;5.55;4.22;;;;;;;0.55;100.00;92158.13;5024238;28;20500;-78
2023/12/09 18:57:55;;;;;;;5.88;3.97;;;;;;;0.55;100.00;92137.53;5020372;28;20041;-78
2023/12/09 19:00:20;;;;;;;5.68;4.05;;;;;;;0.55;100.00;92127.22;5017665;28;20605;-78
2023/12/09 19:02:46;;;;;;;4.97;3.45;;;;;;;0.82;100.00;92128.16;5018306;28;20456;-78
2023/12/09 19:05:12;;;;;;;6.80;4.57;;;;;;;0.78;100.00;92131.44;5015115;28;20037;-78
2023/12/09 19:07:38;;;;;;;6.75;4.57;;;;;;;0.76;100.00;92129.09;5017461;28;20060;-77
2023/12/09 19:10:04;;;;;;;5.25;3.88;;;;;;;0.72;100.00;92122.88;5018003;28;20238;-77
2023/12/09 19:12:30;;;;;;;5.70;4.30;;;;;;;0.64;100.00;92099.28;5022030;28;20462;-78
2023/12/09 19:14:56;;;;;;;5.47;4.07;;;;;;;0.64;100.00;92094.13;5022152;28;20034;-78
2023/12/09 19:17:23;;;;;;;4.28;3.15;;;;;;;0.65;100.00;92105.97;5005975;28;20039;-78
2023/12/09 19:19:49;;;;;;;3.28;2.28;;;;;;;0.61;100.00;92085.09;5008134;28;20037;-78
2023/12/09 19:22:14;;;;;;;3.90;2.67;;;;;;;0.66;100.00;92094.69;5026819;28;20056;-78
2023/12/09 19:24:40;;;;;;;3.60;2.60;;;;;;;0.68;100.00;92090.84;5023458;28;20034;-78
2023/12/09 19:27:09;;;;;;;4.90;3.00;;;;;;;0.62;100.00;92077.09;5010387;28;20033;-78
2023/12/09 19:29:35;;;;;;;4.43;2.97;;;;;;;0.69;100.00;92071.78;5027413;28;20022;-78
2023/12/09 19:32:02;;;;;;;4.32;3.10;;;;;;;0.67;100.00;92049.84;5027063;28;20121;-78
2023/12/09 19:34:28;;;;;;;5.15;3.83;;;;;;;0.66;100.00;92081.81;5028384;28;20049;-79
2023/12/09 19:36:53;;;;;;;3.80;2.72;;;;;;;0.71;100.00;92115.38;5004926;28;20094;-78
2023/12/09 19:39:19;;;;;;;3.17;2.20;;;;;;;0.72;100.00;92122.06;5023068;28;20570;-78
2023/12/09 19:41:45;;;;;;;2.75;1.90;;;;;;;0.74;100.00;92115.66;5027420;28;20037;-78
2023/12/09 19:44:10;;;;;;;3.35;2.00;;;;;;;0.76;100.00;92138.63;5025508;28;20073;-78
2023/12/09 19:46:36;;;;;;;2.88;2.05;;;;;;;0.76;100.00;92129.09;5009243;28;20034;-77
2023/12/09 19:49:02;;;;;;;3.30;2.20;;;;;;;0.74;100.00;92144.00;5025380;28;20037;-77
2023/12/09 19:51:28;;;;;;;3.20;2.20;;;;;;;0.81;100.00;92160.09;5029236;28;20514;-78
2023/12/09 19:53:53;;;;;;;2.90;2.10;;;;;;;0.79;100.00;92149.25;5012085;28;20060;-78
2023/12/09 19:56:19;;;;;;;3.13;2.00;;;;;;;0.85;100.00;92151.91;5026789;28;20033;-78
2023/12/09 19:58:45;;;;;;;3.28;2.10;;;;;;;0.86;100.00;92149.09;5025962;28;20026;-78
2023/12/09 20:01:10;;;;;;;3.92;2.35;;;;;;;0.88;100.00;92172.03;4993040;28;20042;-78
2023/12/09 20:03:36;;;;;;;3.20;2.10;;;;;;;0.88;100.00;92193.47;5011773;28;20034;-78
2023/12/09 20:06:02;;;;;;;3.08;2.10;;;;;;;0.89;100.00;92207.88;5029157;28;20049;-78
2023/12/09 20:08:28;;;;;;;2.40;1.73;;;;;;;0.90;100.00;92206.91;4994403;28;20045;-78
2023/12/09 20:10:54;;;;;;;2.72;1.90;;;;;;;0.92;100.00;92189.38;5031619;28;20516;-78
2023/12/09 20:13:19;;;;;;;3.33;1.63;;;;;;;0.96;100.00;92158.78;5014394;28;20166;-78
2023/12/09 20:15:45;;;;;;;2.00;1.50;;;;;;;1.09;100.00;92134.47;5023930;28;20401;-77
2023/12/09 20:18:11;;;;;;;3.50;2.30;;;;;;;1.15;100.00;92141.25;5017534;28;20034;-78
2023/12/09 20:20:37;;;;;;;3.70;2.22;;;;;;;1.09;100.00;92131.91;5017437;28;20065;-78
2023/12/09 20:23:04;;;;;;;5.63;4.05;;;;;;;1.00;100.00;92116.03;5045376;28;20080;-78
2023/12/09 20:25:29;;;;;;;4.30;2.75;;;;;;;1.11;100.00;92093.78;5046622;28;20091;-77
2023/12/09 20:27:56;;;;;;;3.72;1.95;;;;;;;1.25;100.00;92075.13;5040883;28;20043;-78
2023/12/09 20:30:22;;;;;;;3.80;2.30;;;;;;;1.26;100.00;92075.91;5049742;28;20043;-78
2023/12/09 20:32:50;;;;;;;3.40;2.28;;;;;;;1.07;100.00;92096.03;5048905;28;20491;-76
2023/12/09 20:35:16;;;;;;;3.55;2.25;;;;;;;1.01;100.00;92115.81;5051509;28;20045;-77
2023/12/09 20:37:41;;;;;;;3.30;2.17;;;;;;;0.94;100.00;92135.03;5052168;28;20048;-78
2023/12/09 20:40:07;;;;;;;3.30;2.10;;;;;;;0.91;100.00;92125.19;5058396;28;20061;-77
2023/12/09 20:42:33;;;;;;;3.10;2.03;;;;;;;0.89;100.00;92117.69;5051720;28;20419;-78
2023/12/09 20:45:02;;;;;;;2.83;1.70;;;;;;;0.90;100.00;92108.97;5056116;28;20115;-78
2023/12/09 20:47:28;;;;;;;2.85;1.70;;;;;;;0.91;100.00;92097.63;5035686;28;20048;-78
2023/12/09 20:49:53;;;;;;;2.60;1.80;;;;;;;0.92;100.00;92095.81;5043834;28;20036;-78
2023/12/09 20:52:19;;;;;;;2.38;1.60;;;;;;;0.94;100.00;92096.38;5049114;28;20428;-78
2023/12/09 20:54:45;;;;;;;1.50;1.35;;;;;;;0.95;100.00;92078.09;5047860;28;20055;-78
2023/12/09 20:57:11;;;;;;;2.50;1.60;;;;;;;0.96;100.00;92089.94;5046142;28;20119;-78
2023/12/09 20:59:37;;;;;;;2.10;1.50;;;;;;;0.97;100.00;92094.09;5050826;28;20040;-78
2023/12/09 21:02:03;;;;;;;2.20;1.60;;;;;;;1.01;100.00;92074.56;5054312;28;20400;-79
2023/12/09 21:04:29;;;;;;;1.73;1.40;;;;;;;1.06;100.00;92075.63;5059166;28;20041;-78
2023/12/09 21:06:55;;;;;;;1.95;1.50;;;;;;;1.12;100.00;92064.38;5053303;28;20029;-78
2023/12/09 21:09:25;;;;;;;1.40;1.30;;;;;;;1.31;100.00;92042.47;5051510;28;20531;-78
2023/12/09 21:11:52;;;;;;;1.30;1.20;;;;;;;1.43;100.00;92019.88;5052125;28;20043;-79
2023/12/09 21:14:18;;;;;;;2.20;1.50;;;;;;;1.36;100.00;92006.41;5052482;28;20040;-78
2023/12/09 21:16:44;;;;;;;1.30;1.20;;;;;;;1.73;100.00;92002.38;5050223;28;20025;-79
2023/12/09 21:19:10;;;;;;;1.63;1.20;;;;;;;1.70;100.00;91987.41;5054317;28;20159;-79
2023/12/09 21:21:36;;;;;;;1.58;1.40;;;;;;;1.62;100.00;91998.91;5054645;28;20037;-78
2023/12/09 21:24:02;;;;;;;1.52;1.30;;;;;;;1.49;100.00;92012.19;5053332;28;20078;-79
2023/12/09 21:26:28;;;;;;;1.38;1.27;;;;;;;1.39;100.00;92008.50;5055346;28;20428;-79
2023/12/09 21:28:53;;;;;;;1.65;1.38;;;;;;;1.37;100.00;92004.59;5051851;28;20052;-79
2023/12/09 21:31:19;;;;;;;1.42;1.25;;;;;;;1.39;100.00;91999.97;5049704;28;20090;-79
2023/12/09 21:33:45;;;;;;;1.25;1.15;;;;;;;1.33;100.00;92009.47;5054190;28;20044;-79
2023/12/09 21:36:14;;;;;;;1.63;1.30;;;;;;;1.37;100.00;92015.69;5050148;28;20042;-79
2023/12/09 21:38:44;;;;;;;1.35;1.25;;;;;;;1.27;100.00;91999.34;5052288;28;20033;-79
2023/12/09 21:41:19;;;;;;;1.42;1.25;;;;;;;1.26;100.00;92011.44;5036571;28;20050;-79
2023/12/09 21:43:45;;;;;;;1.60;1.30;;;;;;;1.22;100.00;91997.50;5048053;28;20079;-79
2023/12/09 21:46:10;;;;;;;2.08;1.48;;;;;;;1.22;100.00;92007.81;5043261;28;20108;-79
2023/12/09 21:48:36;;;;;;;2.17;1.65;;;;;;;1.15;100.00;92002.03;5041723;28;20065;-79
2023/12/09 21:51:05;;;;;;;3.15;1.60;;;;;;;1.19;100.00;91988.44;5041321;28;20116;-79
2023/12/09 21:53:31;;;;;;;1.80;1.40;;;;;;;1.17;100.00;91959.53;5057832;28;20579;-79
2023/12/09 21:56:00;;;;;;;1.27;1.15;;;;;;;1.17;100.00;91951.00;5045929;28;20520;-79
2023/12/09 21:58:26;;;;;;;1.30;1.20;;;;;;;1.15;100.00;91946.09;5045951;28;20041;-79
2023/12/09 22:00:51;;;;;;;1.30;1.20;;;;;;;1.15;100.00;91930.63;5036858;28;20199;-79
2023/12/09 22:03:17;;;;;;;1.77;1.23;;;;;;;1.18;100.00;91924.22;5047740;28;20025;-79
2023/12/09 22:05:43;;;;;;;1.50;1.20;;;;;;;1.18;100.00;91908.75;5039151;28;20046;-79
2023/12/09 22:08:08;;;;;;;1.40;1.30;;;;;;;1.16;100.00;91893.50;5045730;28;20488;-79
2023/12/09 22:10:34;;;;;;;1.33;1.20;;;;;;;1.13;100.00;91885.50;5044621;28;20039;-79
2023/12/09 22:13:00;;;;;;;1.95;1.50;;;;;;;1.10;100.00;91886.72;5053828;28;20051;-79
